Hegins, Pennsylvania
Current Conditions -  °F | °C
As of 2:58 PM on Wednesday 26 Nov 2014 (Local Time) from KMUI Reporting Station
Light Rain Light Rain  
Wind Chill: 28°   Ceiling: 3800
Heat Index: 35°   Visibility: 10mi
Dew Point: 32°   Wind: 8mph
Humidity: 89%   Direction: 360°N
Pressure: 29.92"   Gusts: NA
Location:  40.65°N, 76.5°W
Report Text: KMUI 261958Z AUTO 36007KT 340V040 10SM -RA FEW014 BKN038 02/00 A2992 RMK AO2 RAE1919B1949 PRESRR SLP138 P0000 T00151002 $
Loading
Personal Weather Stations






























Interactive Weather Map New forecast layout! Learn more

10-Day Weather Forecast

Advertisements
Track Severe Weather on mobile